Terminal Aerodrome Forecast
Issued by NWS Wilmington, OH

Current Version | Previous Version | Graphics & Text | Print | Product List | Glossary On
Versions: 1 2 3 4 5 6 7 8 9 10 11 12 13 14 15 16 17 18 19 20 21 22 23 24 25 26 27 28
000
FTUS41 KILN 181730
TAFILN
TAF
KILN 181730Z 1818/1918 09011KT P6SM VCSH SCT025 OVC040
      TEMPO 1820/1824 5SM -SHRA BR OVC025
     FM190000 10010KT 4SM -SHRA BR OVC025
     FM190600 15007KT P6SM OVC040
      TEMPO 1910/1914 5SM BR OVC025
     FM191500 20011KT P6SM VCTS SCT025 BKN050CB=

USA.gov is the U.S. government's official web portal to all federal, state and local government web resources and services.